createdAt,value
2018-04-19T00:01:27.158Z,96408.98
2018-04-19T00:03:55.507Z,96406.78
2018-04-19T00:06:23.878Z,96414.11
2018-04-19T00:08:52.577Z,96413.86
2018-04-19T00:11:21.098Z,96414.23
2018-04-19T00:13:49.476Z,96413.95
2018-04-19T00:16:17.928Z,96409.81
2018-04-19T00:18:46.309Z,96407.94
2018-04-19T00:21:14.686Z,96414.73
2018-04-19T00:23:43.043Z,96416.44
2018-04-19T00:26:11.410Z,96408.78
2018-04-19T00:28:39.803Z,96410.77
2018-04-19T00:31:08.160Z,96409.34
2018-04-19T00:33:36.582Z,96406.79
2018-04-19T00:36:04.976Z,96405.46
2018-04-19T00:38:33.588Z,96399.91
2018-04-19T00:41:01.949Z,96403.73
2018-04-19T00:43:30.321Z,96404.25
2018-04-19T00:45:58.734Z,96400.48
2018-04-19T00:48:27.097Z,96396.30
2018-04-19T00:50:55.459Z,96401.78
2018-04-19T00:53:23.809Z,96396.06
2018-04-19T00:55:52.266Z,96399.00
2018-04-19T00:58:20.634Z,96397.46
2018-04-19T01:00:48.995Z,96396.11
2018-04-19T01:03:17.516Z,96394.66
2018-04-19T01:05:45.869Z,96398.98
2018-04-19T01:08:14.227Z,96395.58
2018-04-19T01:10:42.657Z,96396.57
2018-04-19T01:13:11.006Z,96391.59
2018-04-19T01:15:39.374Z,96390.28
2018-04-19T01:18:07.736Z,96389.95
2018-04-19T01:20:36.152Z,96391.25
2018-04-19T01:23:04.509Z,96388.93
2018-04-19T01:25:32.877Z,96390.33
2018-04-19T01:28:01.235Z,96388.63
2018-04-19T01:30:29.592Z,96391.86
2018-04-19T01:32:58.010Z,96383.16
2018-04-19T01:35:39.171Z,96391.94
2018-04-19T01:38:07.662Z,96386.23
2018-04-19T01:40:36.074Z,96389.02
2018-04-19T01:43:04.473Z,96389.47
2018-04-19T01:45:32.857Z,96379.51
2018-04-19T01:48:01.236Z,96385.78
2018-04-19T01:50:29.686Z,96383.78
2018-04-19T01:52:58.094Z,96381.71
2018-04-19T01:55:26.557Z,96384.27
2018-04-19T01:57:54.953Z,96387.18
2018-04-19T02:00:23.360Z,96385.41
2018-04-19T02:02:51.869Z,96382.16
2018-04-19T02:05:20.273Z,96384.59
2018-04-19T02:07:48.683Z,96378.18
2018-04-19T02:10:17.052Z,96382.74
2018-04-19T02:12:45.413Z,96383.45
2018-04-19T02:15:13.837Z,96381.10
2018-04-19T02:17:42.218Z,96375.95
2018-04-19T02:20:10.591Z,96377.66
2018-04-19T02:22:39.074Z,96379.13
2018-04-19T02:25:07.477Z,96363.91
2018-04-19T02:27:36.003Z,96367.83
2018-04-19T02:30:04.375Z,96367.59
2018-04-19T02:32:32.817Z,96367.53
2018-04-19T02:35:01.252Z,96361.22
2018-04-19T02:37:29.590Z,96359.70
2018-04-19T02:39:58.018Z,96361.86
2018-04-19T02:42:26.387Z,96354.44
2018-04-19T02:44:54.843Z,96355.25
2018-04-19T02:47:23.222Z,96351.86
2018-04-19T02:49:51.605Z,96343.31
2018-04-19T02:52:19.983Z,96342.16
2018-04-19T02:54:48.610Z,96343.02
2018-04-19T02:57:17.284Z,96336.22
2018-04-19T02:59:45.695Z,96337.45
2018-04-19T03:02:14.167Z,96333.55
2018-04-19T03:04:42.554Z,96332.95
2018-04-19T03:07:10.939Z,96334.73
2018-04-19T03:09:39.334Z,96326.84
2018-04-19T03:12:07.776Z,96323.81
2018-04-19T03:14:36.189Z,96320.31
2018-04-19T03:17:04.650Z,96321.52
2018-04-19T03:19:33.049Z,96326.48
2018-04-19T03:22:01.425Z,96324.57
2018-04-19T03:24:29.825Z,96321.91
2018-04-19T03:26:58.197Z,96319.47
2018-04-19T03:29:26.669Z,96318.20
2018-04-19T03:31:55.072Z,96317.98
2018-04-19T03:34:23.480Z,96318.38
2018-04-19T03:36:51.899Z,96314.22
2018-04-19T03:39:20.305Z,96316.70
2018-04-19T03:41:48.726Z,96311.62
2018-04-19T03:44:17.159Z,96313.78
2018-04-19T03:46:45.552Z,96313.26
2018-04-19T03:49:13.950Z,96310.57
2018-04-19T03:54:41.141Z,96308.23
2018-04-19T04:00:08.451Z,96305.54
2018-04-19T04:02:38.961Z,96300.09
2018-04-19T04:05:09.522Z,96305.81
2018-04-19T04:07:42.652Z,96298.91
2018-04-19T04:10:14.204Z,96297.83
2018-04-19T04:12:44.179Z,96290.40
2018-04-19T04:15:13.888Z,96297.21
2018-04-19T04:17:54.643Z,96297.22
2018-04-19T04:20:36.532Z,96292.14
2018-04-19T04:23:45.161Z,96288.95
2018-04-19T04:26:17.008Z,96287.04
2018-04-19T04:28:46.354Z,96288.16
2018-04-19T04:31:15.595Z,96283.71
2018-04-19T04:33:44.762Z,96288.59
2018-04-19T04:36:14.059Z,96283.24
2018-04-19T04:38:43.665Z,96289.80
2018-04-19T04:41:13.378Z,96287.67
2018-04-19T04:43:43.403Z,96296.69
2018-04-19T04:46:13.838Z,96288.39
2018-04-19T04:48:44.266Z,96286.67
2018-04-19T04:51:13.643Z,96280.25
2018-04-19T04:53:43.206Z,96276.59
2018-04-19T04:56:12.612Z,96279.73
2018-04-19T04:58:44.044Z,96282.91
2018-04-19T05:01:13.129Z,96288.01
2018-04-19T05:03:42.566Z,96291.07
2018-04-19T05:06:11.814Z,96292.94
2018-04-19T05:08:40.393Z,96291.66
2018-04-19T05:11:10.064Z,96292.02
2018-04-19T05:13:40.672Z,96289.31
2018-04-19T05:16:10.936Z,96291.56
2018-04-19T05:18:40.506Z,96294.95
2018-04-19T05:21:10.757Z,96291.44
2018-04-19T05:23:42.395Z,96286.21
2018-04-19T05:26:13.398Z,96295.00
2018-04-19T05:28:43.325Z,96293.95
2018-04-19T05:31:14.114Z,96292.62
2018-04-19T05:33:43.201Z,96294.30
2018-04-19T05:36:14.306Z,96301.17
2018-04-19T05:38:45.067Z,96306.38
2018-04-19T05:41:13.990Z,96299.16
2018-04-19T05:43:43.040Z,96307.66
2018-04-19T05:46:12.042Z,96308.12
2018-04-19T05:48:41.274Z,96305.66
2018-04-19T05:51:11.620Z,96305.02
2018-04-19T05:53:40.938Z,96306.67
2018-04-19T05:56:11.134Z,96306.90
2018-04-19T05:58:40.666Z,96308.16
2018-04-19T06:01:10.581Z,96300.77
2018-04-19T06:03:40.751Z,96306.22
2018-04-19T06:06:10.096Z,96305.27
2018-04-19T06:08:39.903Z,96307.04
2018-04-19T06:11:11.257Z,96308.53
2018-04-19T06:13:41.841Z,96306.20
2018-04-19T06:16:11.809Z,96307.16
2018-04-19T06:18:41.847Z,96310.45
2018-04-19T06:21:12.645Z,96313.51
2018-04-19T06:23:42.359Z,96303.31
2018-04-19T06:26:12.272Z,96311.11
2018-04-19T06:28:42.222Z,96305.94
2018-04-19T06:31:12.516Z,96307.27
2018-04-19T06:33:42.537Z,96304.02
2018-04-19T06:36:11.754Z,96305.53
2018-04-19T06:38:41.158Z,96305.66
2018-04-19T06:41:11.726Z,96304.53
2018-04-19T06:43:41.420Z,96302.91
2018-04-19T06:46:10.856Z,96308.69
2018-04-19T06:48:40.533Z,96309.08
2018-04-19T06:51:10.110Z,96302.59
2018-04-19T06:53:39.803Z,96304.27
2018-04-19T06:56:09.414Z,96306.13
2018-04-19T06:58:39.284Z,96308.57
2018-04-19T07:01:08.714Z,96305.67
2018-04-19T07:03:38.593Z,96300.70
2018-04-19T07:06:08.363Z,96314.91
2018-04-19T07:08:38.299Z,96312.78
2018-04-19T07:11:08.336Z,96306.30
2018-04-19T07:13:37.947Z,96307.41
2018-04-19T07:16:07.315Z,96306.44
2018-04-19T07:18:36.165Z,96314.45
2018-04-19T07:21:05.517Z,96314.15
2018-04-19T07:23:34.322Z,96313.69
2018-04-19T07:26:03.557Z,96314.09
2018-04-19T07:28:32.240Z,96306.72
2018-04-19T07:31:01.128Z,96317.91
2018-04-19T07:33:29.905Z,96311.41
2018-04-19T07:35:58.469Z,96314.52
2018-04-19T07:38:26.883Z,96316.22
2018-04-19T07:40:55.316Z,96318.56
2018-04-19T07:43:23.831Z,96318.34
2018-04-19T07:45:52.360Z,96319.72
2018-04-19T07:48:21.220Z,96321.59
2018-04-19T07:50:49.644Z,96324.39
2018-04-19T07:53:18.650Z,96322.52
2018-04-19T07:55:47.460Z,96322.63
2018-04-19T07:58:17.265Z,96324.53
2018-04-19T08:00:46.163Z,96331.34
2018-04-19T08:03:15.284Z,96328.98
2018-04-19T08:05:44.356Z,96333.09
2018-04-19T08:08:13.451Z,96329.08
2018-04-19T08:10:42.820Z,96333.00
2018-04-19T08:13:12.363Z,96343.05
2018-04-19T08:15:42.018Z,96338.79
2018-04-19T08:18:11.898Z,96337.19
2018-04-19T08:20:41.211Z,96339.22
2018-04-19T08:23:10.925Z,96338.98
2018-04-19T08:25:40.488Z,96342.14
2018-04-19T08:28:11.019Z,96344.19
2018-04-19T08:30:40.664Z,96340.91
2018-04-19T08:33:10.551Z,96339.48
2018-04-19T08:35:40.588Z,96339.69
2018-04-19T08:38:10.373Z,96337.45
2018-04-19T08:40:41.289Z,96341.70
2018-04-19T08:43:10.918Z,96344.46
2018-04-19T08:45:40.579Z,96335.54
2018-04-19T08:48:10.581Z,96337.45
2018-04-19T08:50:40.709Z,96339.39
2018-04-19T08:53:12.865Z,96338.86
2018-04-19T08:55:41.908Z,96328.59
2018-04-19T08:58:11.279Z,96337.47
2018-04-19T09:00:40.729Z,96330.70
2018-04-19T09:03:10.695Z,96327.48
2018-04-19T09:05:40.398Z,96329.80
2018-04-19T09:08:10.613Z,96323.34
2018-04-19T09:10:39.915Z,96331.08
2018-04-19T09:13:10.673Z,96338.72
2018-04-19T09:15:40.831Z,96334.15
2018-04-19T09:18:11.213Z,96334.31
2018-04-19T09:20:41.172Z,96336.19
2018-04-19T09:23:11.223Z,96337.22
2018-04-19T09:25:41.249Z,96334.47
2018-04-19T09:28:11.935Z,96328.57
2018-04-19T09:30:41.554Z,96328.38
2018-04-19T09:33:12.703Z,96329.56
2018-04-19T09:35:43.168Z,96330.94
2018-04-19T09:38:13.064Z,96326.22
2018-04-19T09:40:43.402Z,96324.42
2018-04-19T09:43:13.245Z,96313.92
2018-04-19T09:45:42.556Z,96320.88
2018-04-19T09:48:12.746Z,96319.03
2018-04-19T09:50:42.904Z,96318.73
2018-04-19T09:53:12.992Z,96318.22
2018-04-19T09:55:42.610Z,96322.98
2018-04-19T09:58:13.039Z,96325.56
2018-04-19T10:00:45.857Z,96311.14
2018-04-19T10:03:19.526Z,96315.46
2018-04-19T10:05:47.938Z,96321.88
2018-04-19T10:08:17.387Z,96320.50
2018-04-19T10:10:46.435Z,96309.53
2018-04-19T10:13:15.746Z,96307.67
2018-04-19T10:15:45.139Z,96307.97
2018-04-19T10:18:14.535Z,96309.28
2018-04-19T10:20:44.121Z,96307.14
2018-04-19T10:23:13.329Z,96300.14
2018-04-19T10:25:42.683Z,96307.72
2018-04-19T10:28:11.883Z,96305.39
2018-04-19T10:30:41.780Z,96297.88
2018-04-19T10:33:12.476Z,96296.42
2018-04-19T10:35:43.086Z,96294.20
2018-04-19T10:38:12.670Z,96291.34
2018-04-19T10:40:43.501Z,96286.16
2018-04-19T10:43:13.064Z,96291.36
2018-04-19T10:45:42.929Z,96293.90
2018-04-19T10:48:14.687Z,96284.05
2018-04-19T10:50:43.772Z,96282.09
2018-04-19T10:53:13.948Z,96275.01
2018-04-19T10:55:42.940Z,96275.35
2018-04-19T10:58:12.182Z,96278.75
2018-04-19T11:00:42.086Z,96277.61
2018-04-19T11:03:12.115Z,96268.78
2018-04-19T11:05:42.220Z,96270.83
2018-04-19T11:08:12.824Z,96270.89
2018-04-19T11:10:41.896Z,96269.48
2018-04-19T11:13:12.324Z,96265.28
2018-04-19T11:15:43.325Z,96264.13
2018-04-19T11:18:13.557Z,96255.84
2018-04-19T11:20:43.108Z,96257.22
2018-04-19T11:23:12.863Z,96260.13
2018-04-19T11:25:44.522Z,96252.76
2018-04-19T11:28:15.768Z,96249.88
2018-04-19T11:30:44.763Z,96250.19
2018-04-19T11:33:15.157Z,96249.38
2018-04-19T11:35:44.541Z,96243.63
2018-04-19T11:38:14.320Z,96247.41
2018-04-19T11:40:43.360Z,96241.79
2018-04-19T11:43:13.268Z,96242.58
2018-04-19T11:45:42.941Z,96239.95
2018-04-19T11:48:16.020Z,96251.97
2018-04-19T11:50:46.197Z,96241.00
2018-04-19T11:53:15.506Z,96234.27
2018-04-19T11:55:44.715Z,96243.05
2018-04-19T11:58:13.585Z,96233.83
2018-04-19T12:00:42.383Z,96231.70
2018-04-19T12:03:11.833Z,96226.25
2018-04-19T12:05:42.481Z,96222.59
2018-04-19T12:08:11.741Z,96224.75
2018-04-19T12:10:44.192Z,96228.31
2018-04-19T12:13:13.220Z,96221.13
2018-04-19T12:15:42.928Z,96220.58
2018-04-19T12:18:12.433Z,96217.95
2018-04-19T12:20:42.071Z,96216.52
2018-04-19T12:23:11.946Z,96215.78
2018-04-19T12:25:41.876Z,96214.12
2018-04-19T12:28:11.433Z,96203.09
2018-04-19T12:30:41.590Z,96215.66
2018-04-19T12:33:11.620Z,96212.58
2018-04-19T12:35:42.705Z,96209.11
2018-04-19T12:38:12.404Z,96210.90
2018-04-19T12:40:42.936Z,96210.91
2018-04-19T12:43:12.776Z,96202.61
2018-04-19T12:45:43.046Z,96195.22
2018-04-19T12:48:13.101Z,96199.57
2018-04-19T12:50:42.996Z,96189.77
2018-04-19T12:53:12.684Z,96196.28
2018-04-19T12:55:42.102Z,96192.56
2018-04-19T12:58:11.717Z,96192.41
2018-04-19T13:00:41.294Z,96183.68
2018-04-19T13:03:12.305Z,96184.16
2018-04-19T13:05:41.960Z,96189.67
2018-04-19T13:08:11.704Z,96183.27
2018-04-19T13:10:41.233Z,96181.03
2018-04-19T13:13:11.623Z,96172.39
2018-04-19T13:15:42.381Z,96171.19
2018-04-19T13:18:12.827Z,96167.98
2018-04-19T13:20:42.598Z,96165.59
2018-04-19T13:23:12.518Z,96169.00
2018-04-19T13:25:43.131Z,96171.28
2018-04-19T13:28:12.714Z,96164.77
2018-04-19T13:30:42.170Z,96162.53
2018-04-19T13:33:11.774Z,96164.38
2018-04-19T13:35:42.059Z,96152.48
2018-04-19T13:38:11.729Z,96148.78
2018-04-19T13:40:41.632Z,96155.41
2018-04-19T13:43:39.036Z,96153.95
2018-04-19T13:46:31.047Z,96151.04
2018-04-19T13:48:59.615Z,96150.92
2018-04-19T13:51:28.223Z,96144.34
2018-04-19T13:53:56.662Z,96142.42
2018-04-19T13:56:25.124Z,96148.52
2018-04-19T13:58:57.096Z,96146.19
2018-04-19T14:01:27.785Z,96140.09
2018-04-19T14:04:18.919Z,96140.96
2018-04-19T14:06:51.574Z,96125.67
2018-04-19T14:09:20.131Z,96132.37
2018-04-19T14:11:57.074Z,96131.84
2018-04-19T14:14:27.587Z,96125.72
2018-04-19T14:16:56.153Z,96120.91
2018-04-19T14:19:25.054Z,96116.78
2018-04-19T14:30:47.484Z,96105.50
2018-04-19T14:33:16.983Z,96103.90
2018-04-19T14:35:46.239Z,96103.58
2018-04-19T14:38:15.456Z,96098.23
2018-04-19T14:40:45.173Z,96094.95
2018-04-19T14:43:17.488Z,96094.73
2018-04-19T14:45:47.372Z,96102.23
2018-04-19T14:48:17.627Z,96094.91
2018-04-19T14:50:47.204Z,96093.25
2018-04-19T14:53:22.162Z,96096.45
2018-04-19T14:55:50.654Z,96082.07
2018-04-19T14:58:20.256Z,96096.73
2018-04-19T15:00:52.463Z,96090.59
2018-04-19T15:03:20.946Z,96092.70
2018-04-19T15:05:50.448Z,96087.17
2018-04-19T15:08:18.998Z,96083.94
2018-04-19T15:10:52.121Z,96087.66
2018-04-19T15:13:20.513Z,96083.31
2018-04-19T15:15:48.905Z,96087.98
2018-04-19T15:18:19.636Z,96082.03
2018-04-19T15:20:49.002Z,96078.63
2018-04-19T15:27:29.519Z,96080.10
2018-04-19T15:29:57.950Z,96086.69
2018-04-19T15:32:26.463Z,96080.03
2018-04-19T15:34:56.681Z,96081.34
2018-04-19T15:40:45.580Z,96082.11
2018-04-19T15:43:13.980Z,96081.63
2018-04-19T15:45:42.378Z,96082.00
2018-04-19T15:48:29.333Z,96077.72
2018-04-19T15:56:46.270Z,96075.42
2018-04-19T15:59:14.807Z,96077.45
2018-04-19T16:01:43.221Z,96078.34
2018-04-19T16:04:11.621Z,96073.14
2018-04-19T16:06:40.078Z,96067.81
2018-04-19T16:09:08.538Z,96071.72
2018-04-19T16:11:36.921Z,96065.18
2018-04-19T16:14:05.321Z,96072.20
2018-04-19T16:16:34.524Z,96068.77
2018-04-19T16:19:02.989Z,96074.48
2018-04-19T16:21:31.388Z,96070.42
2018-04-19T16:23:59.822Z,96067.23
2018-04-19T16:26:28.234Z,96065.52
2018-04-19T16:28:56.717Z,96068.28
2018-04-19T16:31:25.080Z,96059.97
2018-04-19T16:33:53.472Z,96062.48
2018-04-19T16:36:21.942Z,96059.05
2018-04-19T16:38:50.334Z,96056.05
2018-04-19T16:41:18.757Z,96055.42
2018-04-19T16:43:48.835Z,96054.30
2018-04-19T16:46:32.577Z,96056.80
2018-04-19T16:49:02.623Z,96052.80
2018-04-19T16:51:31.072Z,96054.63
2018-04-19T16:53:59.505Z,96050.70
2018-04-19T16:56:27.886Z,96046.28
2018-04-19T16:58:56.251Z,96051.48
2018-04-19T17:01:24.645Z,96049.92
2018-04-19T17:03:53.027Z,96048.39
2018-04-19T17:06:21.522Z,96044.60
2018-04-19T17:08:49.923Z,96041.81
2018-04-19T17:11:18.305Z,96044.52
2018-04-19T17:13:46.705Z,96042.14
2018-04-19T17:16:15.135Z,96038.08
2018-04-19T17:18:43.565Z,96037.85
2018-04-19T17:21:12.079Z,96037.30
2018-04-19T17:23:40.467Z,96042.59
2018-04-19T17:26:08.885Z,96031.02
2018-04-19T17:28:37.278Z,96036.53
2018-04-19T17:31:05.669Z,96033.41
2018-04-19T17:33:34.073Z,96034.59
2018-04-19T17:36:02.450Z,96032.16
2018-04-19T17:38:31.007Z,96026.57
2018-04-19T17:40:59.399Z,96027.64
2018-04-19T17:43:27.999Z,96028.76
2018-04-19T17:45:56.380Z,96025.70
2018-04-19T17:48:24.733Z,96022.36
2018-04-19T17:50:56.821Z,96023.84
2018-04-19T17:53:25.298Z,96020.16
2018-04-19T17:55:53.699Z,96021.14
2018-04-19T17:58:22.074Z,96026.24
2018-04-19T18:00:50.442Z,96022.71
2018-04-19T18:03:18.821Z,96024.59
2018-04-19T18:05:47.296Z,96025.34
2018-04-19T18:08:15.669Z,96027.70
2018-04-19T18:10:44.074Z,96027.25
2018-04-19T18:13:12.437Z,96028.06
2018-04-19T18:15:40.921Z,96031.79
2018-04-19T18:18:09.305Z,96031.03
2018-04-19T18:20:37.790Z,96032.47
2018-04-19T18:23:06.316Z,96037.91
2018-04-19T18:25:34.714Z,96036.14
2018-04-19T18:28:03.095Z,96039.91
2018-04-19T18:30:31.458Z,96035.66
2018-04-19T18:32:59.850Z,96035.27
2018-04-19T18:35:28.309Z,96032.25
2018-04-19T18:37:56.694Z,96035.30
2018-04-19T18:40:25.065Z,96042.95
2018-04-19T18:42:53.431Z,96035.55
2018-04-19T18:45:21.854Z,96039.02
2018-04-19T18:47:50.190Z,96041.67
2018-04-19T18:50:18.563Z,96041.08
2018-04-19T18:52:46.972Z,96044.41
2018-04-19T18:55:15.425Z,96044.96
2018-04-19T18:57:43.879Z,96049.03
2018-04-19T19:00:12.256Z,96043.09
2018-04-19T19:02:40.637Z,96047.15
2018-04-19T19:05:09.108Z,96055.09
2018-04-19T19:07:37.570Z,96052.64
2018-04-19T19:10:06.312Z,96050.94
2018-04-19T19:12:34.760Z,96053.74
2018-04-19T19:15:03.167Z,96058.80
2018-04-19T19:17:43.369Z,96061.16
2018-04-19T19:20:13.570Z,96056.00
2018-04-19T19:22:41.949Z,96064.80
2018-04-19T19:25:10.350Z,96061.16
2018-04-19T19:27:38.812Z,96061.48
2018-04-19T19:30:07.216Z,96065.34
2018-04-19T19:32:35.628Z,96072.80
2018-04-19T19:35:04.148Z,96070.16
2018-04-19T19:37:32.538Z,96071.28
2018-04-19T19:40:01.266Z,96070.99
2018-04-19T19:42:29.734Z,96073.44
2018-04-19T19:44:58.113Z,96075.31
2018-04-19T19:47:26.486Z,96072.68
2018-04-19T19:49:54.841Z,96068.83
2018-04-19T19:52:23.269Z,96065.19
2018-04-19T19:54:51.780Z,96064.27
2018-04-19T19:57:20.153Z,96068.69
2018-04-19T19:59:48.512Z,96067.05
2018-04-19T20:02:16.930Z,96067.80
2018-04-19T20:04:45.384Z,96071.67
2018-04-19T20:07:13.863Z,96069.96
2018-04-19T20:09:42.236Z,96079.78
2018-04-19T20:12:10.650Z,96075.09
2018-04-19T20:14:38.979Z,96072.58
2018-04-19T20:17:07.337Z,96074.61
2018-04-19T20:19:35.707Z,96071.47
2018-04-19T20:22:04.202Z,96076.75
2018-04-19T20:24:32.604Z,96073.16
2018-04-19T20:27:01.041Z,96073.06
2018-04-19T20:29:29.428Z,96075.63
2018-04-19T20:31:58.068Z,96071.56
2018-04-19T20:34:26.653Z,96072.81
2018-04-19T20:36:56.225Z,96077.16
2018-04-19T20:39:24.614Z,96069.22
2018-04-19T20:41:53.002Z,96063.34
2018-04-19T20:44:21.428Z,96065.31
2018-04-19T20:46:49.913Z,96067.72
2018-04-19T20:49:18.320Z,96065.88
2018-04-19T20:51:46.727Z,96068.40
2018-04-19T20:54:15.104Z,96065.48
2018-04-19T20:56:43.527Z,96061.37
2018-04-19T20:59:14.847Z,96065.38
2018-04-19T21:01:43.616Z,96069.00
2018-04-19T21:04:12.675Z,96067.44
2018-04-19T21:06:41.942Z,96058.08
2018-04-19T21:09:11.003Z,96059.81
2018-04-19T21:11:40.122Z,96065.73
2018-04-19T21:14:08.764Z,96064.88
2018-04-19T21:16:37.204Z,96064.05
2018-04-19T21:19:05.585Z,96058.45
2018-04-19T21:21:33.984Z,96060.33
2018-04-19T21:24:02.390Z,96055.84
2018-04-19T21:26:30.838Z,96064.25
2018-04-19T21:28:59.245Z,96058.59
2018-04-19T21:31:27.677Z,96057.92
2018-04-19T21:33:56.110Z,96054.95
2018-04-19T21:36:24.539Z,96050.22
2018-04-19T21:38:53.116Z,96053.79
2018-04-19T21:41:21.526Z,96049.31
2018-04-19T21:43:49.917Z,96051.81
2018-04-19T21:46:18.315Z,96050.91
2018-04-19T21:48:46.692Z,96041.85
2018-04-19T21:51:15.173Z,96042.53
2018-04-19T21:53:44.199Z,96041.22
2018-04-19T21:56:12.621Z,96038.19
2018-04-19T21:58:41.004Z,96030.07
2018-04-19T22:01:09.378Z,96032.42
2018-04-19T22:03:37.748Z,96039.77
2018-04-19T22:06:06.144Z,96036.48
2018-04-19T22:08:34.537Z,96028.50
2018-04-19T22:11:02.911Z,96033.08
2018-04-19T22:13:31.300Z,96035.19
2018-04-19T22:15:59.729Z,96030.19
2018-04-19T22:18:28.189Z,96028.50
2018-04-19T22:20:56.558Z,96034.66
2018-04-19T22:23:24.931Z,96031.23
2018-04-19T22:25:53.399Z,96034.14
2018-04-19T22:28:21.825Z,96029.35
2018-04-19T22:30:50.177Z,96025.33
2018-04-19T22:33:18.536Z,96019.82
2018-04-19T22:35:46.933Z,96020.94
2018-04-19T22:38:15.297Z,96022.87
2018-04-19T22:40:43.727Z,96023.16
2018-04-19T22:43:12.106Z,96024.72
2018-04-19T22:45:40.544Z,96028.18
2018-04-19T22:48:09.032Z,96032.84
2018-04-19T22:50:37.367Z,96028.78
2018-04-19T22:53:05.801Z,96024.92
2018-04-19T22:55:34.170Z,96027.98
2018-04-19T22:58:02.609Z,96022.45
2018-04-19T23:00:31.011Z,96019.56
2018-04-19T23:02:59.419Z,96015.88
2018-04-19T23:05:27.847Z,96017.56
2018-04-19T23:07:56.225Z,96021.66
2018-04-19T23:10:24.598Z,96015.84
2018-04-19T23:12:53.065Z,96019.91
2018-04-19T23:15:21.472Z,96022.58
2018-04-19T23:17:49.992Z,96011.27
2018-04-19T23:20:18.351Z,96009.38
2018-04-19T23:22:46.702Z,96008.31
2018-04-19T23:25:15.100Z,96004.92
2018-04-19T23:27:43.471Z,96004.83
2018-04-19T23:30:11.910Z,96000.41
2018-04-19T23:32:40.278Z,95998.12
2018-04-19T23:35:08.645Z,95996.72
2018-04-19T23:37:37.007Z,95998.95
2018-04-19T23:40:05.425Z,95998.19
2018-04-19T23:42:33.796Z,95992.56
2018-04-19T23:45:02.173Z,95993.53
2018-04-19T23:47:31.132Z,95988.80
2018-04-19T23:49:59.633Z,95990.16
2018-04-19T23:52:28.041Z,95986.63
2018-04-19T23:54:56.429Z,95976.28
2018-04-19T23:57:24.790Z,95974.52
2018-04-19T23:59:53.186Z,95978.09
